createdAt,value
2018-09-29T00:00:15.041Z,0.00
2018-09-29T00:01:14.952Z,0.00
2018-09-29T00:02:14.974Z,0.00
2018-09-29T00:03:15.033Z,0.00
2018-09-29T00:04:14.990Z,0.00
2018-09-29T00:05:15.117Z,0.00
2018-09-29T00:06:15.022Z,0.00
2018-09-29T00:07:15.041Z,0.00
2018-09-29T00:08:15.060Z,0.00
2018-09-29T00:09:15.080Z,0.00
2018-09-29T00:10:15.213Z,0.00
2018-09-29T00:11:15.105Z,0.00
2018-09-29T00:12:15.121Z,0.00
2018-09-29T00:13:15.125Z,0.00
2018-09-29T00:14:15.152Z,0.00
2018-09-29T00:15:15.249Z,0.00
2018-09-29T00:16:15.181Z,0.00
2018-09-29T00:17:15.181Z,0.00
2018-09-29T00:18:15.211Z,0.00
2018-09-29T00:19:15.233Z,0.00
2018-09-29T00:20:15.328Z,0.00
2018-09-29T00:21:15.253Z,0.00
2018-09-29T00:22:15.271Z,0.00
2018-09-29T00:23:15.291Z,0.00
2018-09-29T00:24:15.297Z,0.00
2018-09-29T00:25:15.658Z,0.00
2018-09-29T00:26:15.739Z,0.00
2018-09-29T00:27:15.335Z,0.00
2018-09-29T00:28:16.167Z,0.00
2018-09-29T00:29:15.364Z,0.00
2018-09-29T00:30:15.490Z,0.00
2018-09-29T00:31:15.406Z,0.00
2018-09-29T00:32:15.614Z,0.00
2018-09-29T00:33:15.627Z,0.00
2018-09-29T00:34:15.435Z,0.00
2018-09-29T00:35:15.564Z,0.00
2018-09-29T00:36:15.686Z,0.00
2018-09-29T00:37:15.486Z,0.00
2018-09-29T00:38:15.500Z,0.00
2018-09-29T00:39:15.916Z,0.00
2018-09-29T00:40:15.628Z,0.00
2018-09-29T00:41:15.555Z,0.00
2018-09-29T00:42:15.558Z,0.00
2018-09-29T00:43:15.569Z,0.00
2018-09-29T00:44:15.585Z,0.00
2018-09-29T00:45:15.798Z,0.00
2018-09-29T00:46:15.629Z,0.00
2018-09-29T00:47:15.629Z,0.00
2018-09-29T00:48:15.655Z,0.00
2018-09-29T00:49:15.669Z,0.00
2018-09-29T00:50:15.679Z,0.00
2018-09-29T00:51:15.788Z,0.00
2018-09-29T00:52:15.706Z,0.00
2018-09-29T00:53:15.736Z,0.00
2018-09-29T00:54:15.748Z,0.00
2018-09-29T00:55:15.762Z,0.00
2018-09-29T00:56:15.863Z,0.00
2018-09-29T00:57:15.773Z,0.00
2018-09-29T00:58:15.804Z,0.00
2018-09-29T00:59:15.816Z,0.00
2018-09-29T01:00:15.835Z,0.00
2018-09-29T01:01:15.948Z,0.00
2018-09-29T01:02:15.852Z,0.00
2018-09-29T01:03:15.870Z,0.00
2018-09-29T01:04:15.893Z,0.00
2018-09-29T01:05:15.895Z,0.00
2018-09-29T01:06:16.016Z,0.00
2018-09-29T01:07:15.939Z,0.00
2018-09-29T01:08:15.950Z,0.00
2018-09-29T01:09:15.965Z,0.00
2018-09-29T01:10:15.969Z,0.00
2018-09-29T01:11:16.081Z,0.00
2018-09-29T01:12:16.010Z,0.00
2018-09-29T01:13:16.028Z,0.00
2018-09-29T01:14:16.041Z,0.00
2018-09-29T01:15:16.045Z,0.00
2018-09-29T01:16:16.157Z,0.00
2018-09-29T01:17:16.074Z,0.00
2018-09-29T01:18:16.086Z,0.00
2018-09-29T01:19:16.115Z,0.00
2018-09-29T01:20:16.124Z,0.00
2018-09-29T01:21:16.230Z,0.00
2018-09-29T01:22:16.146Z,0.00
2018-09-29T01:23:16.161Z,0.00
2018-09-29T01:24:16.177Z,0.00
2018-09-29T01:25:16.191Z,0.00
2018-09-29T01:26:16.314Z,0.00
2018-09-29T01:27:16.225Z,0.00
2018-09-29T01:28:16.233Z,0.00
2018-09-29T01:29:16.262Z,0.00
2018-09-29T01:30:16.273Z,0.00
2018-09-29T01:31:16.378Z,0.00
2018-09-29T01:32:16.305Z,0.00
2018-09-29T01:33:16.306Z,0.00
2018-09-29T01:34:16.326Z,0.00
2018-09-29T01:35:16.345Z,0.00
2018-09-29T01:36:16.466Z,0.00
2018-09-29T01:37:16.366Z,0.00
2018-09-29T01:38:16.401Z,0.00
2018-09-29T01:39:16.397Z,0.00
2018-09-29T01:40:16.422Z,0.00
2018-09-29T01:41:16.544Z,0.00
2018-09-29T01:42:16.446Z,0.00
2018-09-29T01:43:16.467Z,0.00
2018-09-29T01:44:16.481Z,0.00
2018-09-29T01:45:16.489Z,0.00
2018-09-29T01:46:16.601Z,0.00
2018-09-29T01:47:16.513Z,0.00
2018-09-29T01:48:16.542Z,0.00
2018-09-29T01:49:16.550Z,0.00
2018-09-29T01:50:16.564Z,0.00
2018-09-29T01:51:16.667Z,0.00
2018-09-29T01:52:16.603Z,0.00
2018-09-29T01:53:16.618Z,0.00
2018-09-29T01:54:16.619Z,0.00
2018-09-29T01:55:16.642Z,0.00
2018-09-29T01:56:16.654Z,0.00
2018-09-29T01:57:16.759Z,0.00
2018-09-29T01:58:16.685Z,0.00
2018-09-29T01:59:16.689Z,0.00
2018-09-29T02:00:16.710Z,0.00
2018-09-29T02:01:16.721Z,0.00
2018-09-29T02:02:16.833Z,0.00
2018-09-29T02:03:16.759Z,0.00
2018-09-29T02:04:16.761Z,0.00
2018-09-29T02:05:16.779Z,0.00
2018-09-29T02:06:16.808Z,0.00
2018-09-29T02:07:16.921Z,0.00
2018-09-29T02:08:16.836Z,0.00
2018-09-29T02:09:16.848Z,0.00
2018-09-29T02:10:16.850Z,0.00
2018-09-29T02:11:16.873Z,0.00
2018-09-29T02:12:16.994Z,0.00
2018-09-29T02:13:16.897Z,0.00
2018-09-29T02:14:16.907Z,0.00
2018-09-29T02:15:16.946Z,0.00
2018-09-29T02:16:16.946Z,0.00
2018-09-29T02:17:17.063Z,0.00
2018-09-29T02:18:16.980Z,0.00
2018-09-29T02:19:16.998Z,0.00
2018-09-29T02:20:17.008Z,0.00
2018-09-29T02:21:17.024Z,0.00
2018-09-29T02:22:17.141Z,0.00
2018-09-29T02:23:17.054Z,0.00
2018-09-29T02:24:17.071Z,0.00
2018-09-29T02:25:17.080Z,0.00
2018-09-29T02:26:17.099Z,0.00
2018-09-29T02:27:17.203Z,0.00
2018-09-29T02:28:17.121Z,0.00
2018-09-29T02:29:17.141Z,0.00
2018-09-29T02:30:17.157Z,0.00
2018-09-29T02:31:17.163Z,0.00
2018-09-29T02:32:17.286Z,0.00
2018-09-29T02:33:17.192Z,0.00
2018-09-29T02:34:17.217Z,0.00
2018-09-29T02:35:17.232Z,0.00
2018-09-29T02:36:17.246Z,0.00
2018-09-29T02:37:17.362Z,0.00
2018-09-29T02:38:17.275Z,0.00
2018-09-29T02:39:17.277Z,0.00
2018-09-29T02:40:17.300Z,0.00
2018-09-29T02:41:17.319Z,0.00
2018-09-29T02:42:17.423Z,0.00
2018-09-29T02:43:17.347Z,0.00
2018-09-29T02:44:17.367Z,0.00
2018-09-29T02:45:17.379Z,0.00
2018-09-29T02:46:17.394Z,0.00
2018-09-29T02:47:17.498Z,0.00
2018-09-29T02:48:17.419Z,0.00
2018-09-29T02:49:17.439Z,0.00
2018-09-29T02:50:17.454Z,0.00
2018-09-29T02:51:17.466Z,0.00
2018-09-29T02:52:17.571Z,0.00
2018-09-29T02:53:17.493Z,0.00
2018-09-29T02:54:17.503Z,0.00
2018-09-29T02:55:17.519Z,0.00
2018-09-29T02:56:17.529Z,0.00
2018-09-29T02:57:17.642Z,0.00
2018-09-29T02:58:17.566Z,0.00
2018-09-29T02:59:17.585Z,0.00
2018-09-29T03:00:17.604Z,0.00
2018-09-29T03:01:17.628Z,0.00
2018-09-29T03:02:17.722Z,0.00
2018-09-29T03:03:17.646Z,0.00
2018-09-29T03:04:17.663Z,0.00
2018-09-29T03:05:17.668Z,0.00
2018-09-29T03:06:17.695Z,0.00
2018-09-29T03:07:17.908Z,0.00
2018-09-29T03:08:17.714Z,0.00
2018-09-29T03:09:17.735Z,0.00
2018-09-29T03:10:17.751Z,0.00
2018-09-29T03:11:17.765Z,0.00
2018-09-29T03:12:17.875Z,0.00
2018-09-29T03:13:17.794Z,0.00
2018-09-29T03:14:17.798Z,0.00
2018-09-29T03:15:17.809Z,0.00
2018-09-29T03:16:17.830Z,0.00
2018-09-29T03:17:17.952Z,0.00
2018-09-29T03:18:17.865Z,0.00
2018-09-29T03:19:17.942Z,0.00
2018-09-29T03:20:17.897Z,0.00
2018-09-29T03:21:17.910Z,0.00
2018-09-29T03:22:18.015Z,0.00
2018-09-29T03:23:18.029Z,0.00
2018-09-29T03:24:17.945Z,0.00
2018-09-29T03:25:17.961Z,0.00
2018-09-29T03:26:17.977Z,0.00
2018-09-29T03:27:18.090Z,0.00
2018-09-29T03:28:18.015Z,0.00
2018-09-29T03:29:18.019Z,0.00
2018-09-29T03:30:18.040Z,0.00
2018-09-29T03:31:18.046Z,0.00
2018-09-29T03:32:18.334Z,0.00
2018-09-29T03:33:18.094Z,0.00
2018-09-29T03:34:18.099Z,0.00
2018-09-29T03:35:18.110Z,0.00
2018-09-29T03:36:18.124Z,0.00
2018-09-29T03:37:18.238Z,0.00
2018-09-29T03:38:18.165Z,0.00
2018-09-29T03:39:18.172Z,0.00
2018-09-29T03:40:18.181Z,0.00
2018-09-29T03:41:18.195Z,0.00
2018-09-29T03:42:18.316Z,0.00
2018-09-29T03:43:18.227Z,0.00
2018-09-29T03:44:18.240Z,0.00
2018-09-29T03:45:18.265Z,0.00
2018-09-29T03:46:18.284Z,0.00
2018-09-29T03:47:18.545Z,0.00
2018-09-29T03:48:18.291Z,0.00
2018-09-29T03:49:18.322Z,0.00
2018-09-29T03:50:18.339Z,0.00
2018-09-29T03:51:18.404Z,0.00
2018-09-29T03:52:18.469Z,0.00
2018-09-29T03:53:18.386Z,0.00
2018-09-29T03:54:18.409Z,0.00
2018-09-29T03:55:18.409Z,0.00
2018-09-29T03:56:18.412Z,0.00
2018-09-29T03:57:18.532Z,0.00
2018-09-29T03:58:18.448Z,0.00
2018-09-29T03:59:18.471Z,0.00
2018-09-29T04:00:18.469Z,0.00
2018-09-29T04:01:18.496Z,0.00
2018-09-29T04:02:18.601Z,0.00
2018-09-29T04:03:18.512Z,0.00
2018-09-29T04:04:18.574Z,0.00
2018-09-29T04:05:18.566Z,0.00
2018-09-29T04:06:18.566Z,0.00
2018-09-29T04:07:18.838Z,0.00
2018-09-29T04:08:18.590Z,0.00
2018-09-29T04:09:18.605Z,0.00
2018-09-29T04:10:18.636Z,0.00
2018-09-29T04:11:18.653Z,0.00
2018-09-29T04:12:18.655Z,0.00
2018-09-29T04:13:18.916Z,0.00
2018-09-29T04:14:18.683Z,0.00
2018-09-29T04:15:18.709Z,0.00
2018-09-29T04:16:18.721Z,0.00
2018-09-29T04:17:18.731Z,0.00
2018-09-29T04:18:18.835Z,0.00
2018-09-29T04:19:18.762Z,0.00
2018-09-29T04:20:18.785Z,0.00
2018-09-29T04:21:18.775Z,0.00
2018-09-29T04:22:18.795Z,0.00
2018-09-29T04:23:18.912Z,0.00
2018-09-29T04:24:18.824Z,0.00
2018-09-29T04:25:18.837Z,0.00
2018-09-29T04:26:18.869Z,0.00
2018-09-29T04:27:18.870Z,0.00
2018-09-29T04:28:19.050Z,0.00
2018-09-29T04:29:18.894Z,0.00
2018-09-29T04:30:18.926Z,0.00
2018-09-29T04:31:18.938Z,0.00
2018-09-29T04:32:18.955Z,0.00
2018-09-29T04:33:19.056Z,0.00
2018-09-29T04:34:18.971Z,0.00
2018-09-29T04:35:18.993Z,0.00
2018-09-29T04:36:18.997Z,0.00
2018-09-29T04:37:19.012Z,0.00
2018-09-29T04:38:19.128Z,0.00
2018-09-29T04:39:19.041Z,0.00
2018-09-29T04:40:19.062Z,0.00
2018-09-29T04:41:19.081Z,0.00
2018-09-29T04:42:19.101Z,0.00
2018-09-29T04:43:19.303Z,0.00
2018-09-29T04:44:19.128Z,0.00
2018-09-29T04:45:19.128Z,0.00
2018-09-29T04:46:19.155Z,0.00
2018-09-29T04:47:19.157Z,0.00
2018-09-29T04:48:19.333Z,0.00
2018-09-29T04:49:19.200Z,0.00
2018-09-29T04:50:19.203Z,0.00
2018-09-29T04:51:19.211Z,0.00
2018-09-29T04:52:19.226Z,0.00
2018-09-29T04:53:19.354Z,0.00
2018-09-29T04:54:19.262Z,0.00
2018-09-29T04:55:19.271Z,0.00
2018-09-29T04:56:19.290Z,0.00
2018-09-29T04:57:19.312Z,0.00
2018-09-29T04:58:19.459Z,0.00
2018-09-29T04:59:19.340Z,0.00
2018-09-29T05:00:19.347Z,0.00
2018-09-29T05:01:19.373Z,0.00
2018-09-29T05:02:19.387Z,0.00
2018-09-29T05:03:19.539Z,0.00
2018-09-29T05:04:19.402Z,0.00
2018-09-29T05:05:19.423Z,0.00
2018-09-29T05:06:19.489Z,0.00
2018-09-29T05:07:19.455Z,0.00
2018-09-29T05:08:19.713Z,0.00
2018-09-29T05:09:19.487Z,0.00
2018-09-29T05:10:19.490Z,0.00
2018-09-29T05:11:19.500Z,0.00
2018-09-29T05:12:19.521Z,0.00
2018-09-29T05:13:19.549Z,0.00
2018-09-29T05:14:19.648Z,0.00
2018-09-29T05:15:19.559Z,0.00
2018-09-29T05:16:19.585Z,0.00
2018-09-29T05:17:19.608Z,0.00
2018-09-29T05:18:19.622Z,0.00
2018-09-29T05:19:19.622Z,0.00
2018-09-29T05:20:19.887Z,0.00
2018-09-29T05:21:19.658Z,0.00
2018-09-29T05:22:19.675Z,0.00
2018-09-29T05:23:19.796Z,0.00
2018-09-29T05:24:19.693Z,0.00
2018-09-29T05:25:19.816Z,0.00
2018-09-29T05:26:19.725Z,0.00
2018-09-29T05:27:19.746Z,0.00
2018-09-29T05:28:19.753Z,0.00
2018-09-29T05:29:19.777Z,0.00
2018-09-29T05:30:19.881Z,0.00
2018-09-29T05:31:19.793Z,0.00
2018-09-29T05:32:19.821Z,0.00
2018-09-29T05:33:19.841Z,0.00
2018-09-29T05:34:19.846Z,0.00
2018-09-29T05:35:20.113Z,0.00
2018-09-29T05:36:19.878Z,0.00
2018-09-29T05:37:19.883Z,0.00
2018-09-29T05:38:19.971Z,0.00
2018-09-29T05:39:19.924Z,0.00
2018-09-29T05:40:20.036Z,0.00
2018-09-29T05:41:19.953Z,0.00
2018-09-29T05:42:19.963Z,0.00
2018-09-29T05:43:19.969Z,0.00
2018-09-29T05:44:19.976Z,0.00
2018-09-29T05:45:20.099Z,0.00
2018-09-29T05:46:20.014Z,0.00
2018-09-29T05:47:20.026Z,0.00
2018-09-29T05:48:20.120Z,0.00
2018-09-29T05:49:20.065Z,0.00
2018-09-29T05:50:20.173Z,0.00
2018-09-29T05:51:20.083Z,0.00
2018-09-29T05:52:20.097Z,0.00
2018-09-29T05:53:20.114Z,0.00
2018-09-29T05:54:20.143Z,0.00
2018-09-29T05:55:20.251Z,0.00
2018-09-29T05:56:20.171Z,0.00
2018-09-29T05:57:20.170Z,0.00
2018-09-29T05:58:20.196Z,0.00
2018-09-29T05:59:20.198Z,0.00
2018-09-29T06:00:20.379Z,0.00
2018-09-29T06:01:20.221Z,0.00
2018-09-29T06:02:20.249Z,0.00
2018-09-29T06:03:20.267Z,0.00
2018-09-29T06:04:20.276Z,0.00
2018-09-29T06:05:20.471Z,0.00
2018-09-29T06:06:20.297Z,0.00
2018-09-29T06:07:20.359Z,0.00
2018-09-29T06:08:20.358Z,0.00
2018-09-29T06:09:20.343Z,0.00
2018-09-29T06:10:20.458Z,0.00
2018-09-29T06:11:20.384Z,0.00
2018-09-29T06:12:20.383Z,0.00
2018-09-29T06:13:20.559Z,0.00
2018-09-29T06:14:20.428Z,0.00
2018-09-29T06:15:20.530Z,0.00
2018-09-29T06:16:20.449Z,0.00
2018-09-29T06:17:20.457Z,0.00
2018-09-29T06:18:20.487Z,0.00
2018-09-29T06:19:20.500Z,0.00
2018-09-29T06:20:20.603Z,0.00
2018-09-29T06:21:20.509Z,0.00
2018-09-29T06:22:20.530Z,0.00
2018-09-29T06:23:20.559Z,0.00
2018-09-29T06:24:20.556Z,0.00
2018-09-29T06:25:20.676Z,0.00
2018-09-29T06:26:20.585Z,0.00
2018-09-29T06:27:20.611Z,0.00
2018-09-29T06:28:20.628Z,0.00
2018-09-29T06:29:20.643Z,0.00
2018-09-29T06:30:20.758Z,0.00
2018-09-29T06:31:20.672Z,0.00
2018-09-29T06:32:20.680Z,0.00
2018-09-29T06:33:20.684Z,0.00
2018-09-29T06:34:20.788Z,0.00
2018-09-29T06:35:20.828Z,0.00
2018-09-29T06:36:20.743Z,0.00
2018-09-29T06:37:20.749Z,0.00
2018-09-29T06:38:20.834Z,0.00
2018-09-29T06:39:20.783Z,0.00
2018-09-29T06:40:20.898Z,0.00
2018-09-29T06:41:20.815Z,0.00
2018-09-29T06:42:20.819Z,0.00
2018-09-29T06:43:20.845Z,0.00
2018-09-29T06:44:20.859Z,0.00
2018-09-29T06:45:20.964Z,0.00
2018-09-29T06:46:20.876Z,0.00
2018-09-29T06:47:20.906Z,0.00
2018-09-29T06:48:20.904Z,0.00
2018-09-29T06:49:20.922Z,0.00
2018-09-29T06:50:21.043Z,0.00
2018-09-29T06:51:20.960Z,0.00
2018-09-29T06:52:20.973Z,0.00
2018-09-29T06:53:20.990Z,0.00
2018-09-29T06:54:21.007Z,0.00
2018-09-29T06:55:21.102Z,0.00
2018-09-29T06:56:21.027Z,0.00
2018-09-29T06:57:21.044Z,0.00
2018-09-29T06:58:21.047Z,0.00
2018-09-29T06:59:21.060Z,0.00
2018-09-29T07:00:21.178Z,0.00
2018-09-29T07:01:21.098Z,0.00
2018-09-29T07:02:21.115Z,0.00
2018-09-29T07:03:21.125Z,0.00
2018-09-29T07:04:21.138Z,0.00
2018-09-29T07:05:21.259Z,0.00
2018-09-29T07:06:21.157Z,0.00
2018-09-29T07:07:21.172Z,0.00
2018-09-29T07:08:21.190Z,0.00
2018-09-29T07:09:21.199Z,0.00
2018-09-29T07:10:21.317Z,0.00
2018-09-29T07:11:21.278Z,0.00
2018-09-29T07:12:21.293Z,0.00
2018-09-29T07:13:21.263Z,0.00
2018-09-29T07:14:21.278Z,0.00
2018-09-29T07:15:21.384Z,0.00
2018-09-29T07:16:21.304Z,0.00
2018-09-29T07:17:21.324Z,0.00
2018-09-29T07:18:21.341Z,0.00
2018-09-29T07:19:21.352Z,0.00
2018-09-29T07:20:21.454Z,0.00
2018-09-29T07:21:21.373Z,0.00
2018-09-29T07:22:21.383Z,0.00
2018-09-29T07:23:21.408Z,0.00
2018-09-29T07:24:21.410Z,0.00
2018-09-29T07:25:21.547Z,0.00
2018-09-29T07:26:21.434Z,0.00
2018-09-29T07:27:21.453Z,0.00
2018-09-29T07:28:21.477Z,0.00
2018-09-29T07:29:21.478Z,0.00
2018-09-29T07:30:21.681Z,0.00
2018-09-29T07:31:21.524Z,0.00
2018-09-29T07:32:21.524Z,0.00
2018-09-29T07:33:21.547Z,0.00
2018-09-29T07:34:21.553Z,0.00
2018-09-29T07:35:21.564Z,0.00
2018-09-29T07:36:21.827Z,0.00
2018-09-29T07:37:21.589Z,0.00
2018-09-29T07:38:21.616Z,0.00
2018-09-29T07:39:21.625Z,0.00
2018-09-29T07:40:21.645Z,0.00
2018-09-29T07:41:21.759Z,0.00
2018-09-29T07:42:21.669Z,0.00
2018-09-29T07:43:21.687Z,0.00
2018-09-29T07:44:21.699Z,0.00
2018-09-29T07:45:21.706Z,0.00
2018-09-29T07:46:21.827Z,0.00
2018-09-29T07:47:21.735Z,0.00
2018-09-29T07:48:21.747Z,0.00
2018-09-29T07:49:21.774Z,0.00
2018-09-29T07:50:21.781Z,0.00
2018-09-29T07:51:21.902Z,0.00
2018-09-29T07:52:21.813Z,0.00
2018-09-29T07:53:21.833Z,0.00
2018-09-29T07:54:21.855Z,0.00
2018-09-29T07:55:21.844Z,0.00
2018-09-29T07:56:21.973Z,0.00
2018-09-29T07:57:21.888Z,0.00
2018-09-29T07:58:21.898Z,0.00
2018-09-29T07:59:21.903Z,0.00
2018-09-29T08:00:21.928Z,0.00
2018-09-29T08:01:22.188Z,0.00
2018-09-29T08:02:21.944Z,0.00
2018-09-29T08:03:21.976Z,0.00
2018-09-29T08:04:21.984Z,0.00
2018-09-29T08:05:21.998Z,0.00
2018-09-29T08:06:22.210Z,0.00
2018-09-29T08:07:22.014Z,0.00
2018-09-29T08:08:22.029Z,0.00
2018-09-29T08:09:22.067Z,0.00
2018-09-29T08:10:22.076Z,0.00
2018-09-29T08:11:22.172Z,0.00
2018-09-29T08:12:22.144Z,0.00
2018-09-29T08:13:22.108Z,0.00
2018-09-29T08:14:22.135Z,0.00
2018-09-29T08:15:22.129Z,0.00
2018-09-29T08:16:22.244Z,0.00
2018-09-29T08:17:22.170Z,0.00
2018-09-29T08:18:22.187Z,0.00
2018-09-29T08:19:22.200Z,0.00
2018-09-29T08:20:22.217Z,0.00
2018-09-29T08:21:22.318Z,0.00
2018-09-29T08:22:22.226Z,0.00
2018-09-29T08:23:22.258Z,0.00
2018-09-29T08:24:22.319Z,0.00
2018-09-29T08:25:22.271Z,0.00
2018-09-29T08:26:22.396Z,0.00
2018-09-29T08:27:22.300Z,0.00
2018-09-29T08:28:22.321Z,0.00
2018-09-29T08:29:22.332Z,0.00
2018-09-29T08:30:22.354Z,0.00
2018-09-29T08:31:22.468Z,0.00
2018-09-29T08:32:22.423Z,0.00
2018-09-29T08:33:22.385Z,0.00
2018-09-29T08:34:22.411Z,0.00
2018-09-29T08:35:22.410Z,0.00
2018-09-29T08:36:22.542Z,0.00
2018-09-29T08:37:22.456Z,0.00
2018-09-29T08:38:22.453Z,0.00
2018-09-29T08:39:22.481Z,0.00
2018-09-29T08:40:22.498Z,0.00
2018-09-29T08:41:22.613Z,0.00
2018-09-29T08:42:22.526Z,0.00
2018-09-29T08:43:22.529Z,0.00
2018-09-29T08:44:22.547Z,0.00
2018-09-29T08:45:22.573Z,0.00
2018-09-29T08:46:22.577Z,0.00
2018-09-29T08:47:22.685Z,0.00
2018-09-29T08:48:22.599Z,0.00
2018-09-29T08:49:22.622Z,0.00
2018-09-29T08:50:22.639Z,0.00
2018-09-29T08:51:22.641Z,0.00
2018-09-29T08:52:22.768Z,0.00
2018-09-29T08:53:22.728Z,0.00
2018-09-29T08:54:22.695Z,0.00
2018-09-29T08:55:22.711Z,0.00
2018-09-29T08:56:22.723Z,0.00
2018-09-29T08:57:22.837Z,5.63
2018-09-29T08:58:22.750Z,5.63
2018-09-29T08:59:22.767Z,5.63
2018-09-29T09:00:22.771Z,5.63
2018-09-29T09:01:22.787Z,5.63
2018-09-29T09:02:22.955Z,5.63
2018-09-29T09:03:22.864Z,11.25
2018-09-29T09:04:22.875Z,11.25
2018-09-29T09:05:22.894Z,11.25
2018-09-29T09:06:22.926Z,16.88
2018-09-29T09:07:23.025Z,11.25
2018-09-29T09:08:22.891Z,16.88
2018-09-29T09:09:22.979Z,16.88
2018-09-29T09:10:22.922Z,16.88
2018-09-29T09:11:22.938Z,16.88
2018-09-29T09:12:23.048Z,16.88
2018-09-29T09:13:22.953Z,22.50
2018-09-29T09:14:22.984Z,22.50
2018-09-29T09:15:22.996Z,33.75
2018-09-29T09:16:22.997Z,45.00
2018-09-29T09:17:23.127Z,50.63
2018-09-29T09:18:23.041Z,50.63
2018-09-29T09:19:23.040Z,56.25
2018-09-29T09:20:23.070Z,56.25
2018-09-29T09:21:23.084Z,61.88
2018-09-29T09:22:23.204Z,67.50
2018-09-29T09:23:23.146Z,67.50
2018-09-29T09:24:23.269Z,67.50
2018-09-29T09:25:23.126Z,61.88
2018-09-29T09:26:23.143Z,61.88
2018-09-29T09:27:23.273Z,56.25
2018-09-29T09:28:23.184Z,50.63
2018-09-29T09:29:23.196Z,45.00
2018-09-29T09:30:23.296Z,45.00
2018-09-29T09:31:23.224Z,45.00
2018-09-29T09:32:23.332Z,56.25
2018-09-29T09:33:23.243Z,61.88
2018-09-29T09:34:23.263Z,56.25
2018-09-29T09:35:23.271Z,50.63
2018-09-29T09:36:23.303Z,61.88
2018-09-29T09:37:23.401Z,56.25
2018-09-29T09:38:23.324Z,45.00
2018-09-29T09:39:23.330Z,45.00
2018-09-29T09:40:23.358Z,45.00
2018-09-29T09:41:23.364Z,45.00
2018-09-29T09:42:23.484Z,45.00
2018-09-29T09:43:23.447Z,45.00
2018-09-29T09:44:23.411Z,45.00
2018-09-29T09:45:23.429Z,45.00
2018-09-29T09:46:23.434Z,45.00
2018-09-29T09:47:23.556Z,45.00
2018-09-29T09:48:23.460Z,50.63
2018-09-29T09:49:23.484Z,45.00
2018-09-29T09:50:23.498Z,50.63
2018-09-29T09:51:23.510Z,56.25
2018-09-29T09:52:23.617Z,56.25
2018-09-29T09:53:23.551Z,50.63
2018-09-29T09:54:23.553Z,45.00
2018-09-29T09:55:23.574Z,50.63
2018-09-29T09:56:23.576Z,50.63
2018-09-29T09:57:23.590Z,61.88
2018-09-29T09:58:23.702Z,56.25
2018-09-29T09:59:23.666Z,50.63
2018-09-29T10:00:23.643Z,50.63
2018-09-29T10:01:23.650Z,56.25
2018-09-29T10:02:23.677Z,61.88
2018-09-29T10:03:23.786Z,61.88
2018-09-29T10:04:23.710Z,61.88
2018-09-29T10:05:23.705Z,73.13
2018-09-29T10:06:23.724Z,73.13
2018-09-29T10:07:23.747Z,73.13
2018-09-29T10:08:23.857Z,78.75
2018-09-29T10:09:23.761Z,84.38
2018-09-29T10:10:23.781Z,78.75
2018-09-29T10:11:23.805Z,90.00
2018-09-29T10:12:23.820Z,90.00
2018-09-29T10:13:23.933Z,78.75
2018-09-29T10:14:23.836Z,84.38
2018-09-29T10:15:23.852Z,106.88
2018-09-29T10:16:23.869Z,129.38
2018-09-29T10:17:23.890Z,129.38
2018-09-29T10:18:24.010Z,135.00
2018-09-29T10:19:23.908Z,180.00
2018-09-29T10:20:23.928Z,196.88
2018-09-29T10:21:23.946Z,241.88
2018-09-29T10:22:23.964Z,253.13
2018-09-29T10:23:24.083Z,264.38
2018-09-29T10:24:23.998Z,303.75
2018-09-29T10:25:24.014Z,275.63
2018-09-29T10:26:24.010Z,264.38
2018-09-29T10:27:24.042Z,275.63
2018-09-29T10:28:24.148Z,320.63
2018-09-29T10:29:24.079Z,337.50
2018-09-29T10:30:24.095Z,360.00
2018-09-29T10:31:24.096Z,360.00
2018-09-29T10:32:24.119Z,331.88
2018-09-29T10:33:24.222Z,337.50
2018-09-29T10:34:24.155Z,382.50
2018-09-29T10:35:24.157Z,416.25
2018-09-29T10:36:24.304Z,410.63
2018-09-29T10:37:24.198Z,461.25
2018-09-29T10:38:24.349Z,511.88
2018-09-29T10:39:24.221Z,500.63
2018-09-29T10:40:24.247Z,472.50
2018-09-29T10:41:24.253Z,416.25
2018-09-29T10:42:24.274Z,382.50
2018-09-29T10:43:24.397Z,388.13
2018-09-29T10:44:24.311Z,365.63
2018-09-29T10:45:24.323Z,388.13
2018-09-29T10:46:24.331Z,410.63
2018-09-29T10:47:24.362Z,365.63
2018-09-29T10:48:24.478Z,393.75
2018-09-29T10:49:24.387Z,382.50
2018-09-29T10:50:24.417Z,270.00
2018-09-29T10:51:24.412Z,281.25
2018-09-29T10:52:24.446Z,320.63
2018-09-29T10:53:24.565Z,241.88
2018-09-29T10:54:24.481Z,219.38
2018-09-29T10:55:24.486Z,196.88
2018-09-29T10:56:24.513Z,196.88
2018-09-29T10:57:24.522Z,213.75
2018-09-29T10:58:24.635Z,225.00
2018-09-29T10:59:24.552Z,191.25
2018-09-29T11:00:24.565Z,185.63
2018-09-29T11:01:24.579Z,185.63
2018-09-29T11:02:24.612Z,185.63
2018-09-29T11:03:24.728Z,174.38
2018-09-29T11:04:24.645Z,185.63
2018-09-29T11:05:24.651Z,208.13
2018-09-29T11:06:24.681Z,219.38
2018-09-29T11:07:24.692Z,236.25
2018-09-29T11:08:24.801Z,275.63
2018-09-29T11:09:24.726Z,275.63
2018-09-29T11:10:24.733Z,253.13
2018-09-29T11:11:24.764Z,264.38
2018-09-29T11:12:24.771Z,264.38
2018-09-29T11:13:24.893Z,230.63
2018-09-29T11:14:24.840Z,236.25
2018-09-29T11:15:24.830Z,270.00
2018-09-29T11:16:24.828Z,315.00
2018-09-29T11:17:24.859Z,405.00
2018-09-29T11:18:24.976Z,388.13
2018-09-29T11:19:24.882Z,388.13
2018-09-29T11:20:24.910Z,354.38
2018-09-29T11:21:24.927Z,365.63
2018-09-29T11:22:24.932Z,421.88
2018-09-29T11:23:25.061Z,410.63
2018-09-29T11:24:24.977Z,421.88
2018-09-29T11:25:24.979Z,421.88
2018-09-29T11:26:24.990Z,405.00
2018-09-29T11:27:25.020Z,382.50
2018-09-29T11:28:25.140Z,354.38
2018-09-29T11:29:25.057Z,382.50
2018-09-29T11:30:25.068Z,343.13
2018-09-29T11:31:25.081Z,309.38
2018-09-29T11:32:25.107Z,309.38
2018-09-29T11:33:25.223Z,326.25
2018-09-29T11:34:25.128Z,343.13
2018-09-29T11:35:25.151Z,331.88
2018-09-29T11:36:25.180Z,247.50
2018-09-29T11:37:25.190Z,213.75
2018-09-29T11:38:25.296Z,185.63
2018-09-29T11:39:25.252Z,202.50
2018-09-29T11:40:25.248Z,185.63
2018-09-29T11:41:25.257Z,213.75
2018-09-29T11:42:25.276Z,219.38
2018-09-29T11:43:25.389Z,236.25
2018-09-29T11:44:25.315Z,241.88
2018-09-29T11:45:25.324Z,236.25
2018-09-29T11:46:25.330Z,236.25
2018-09-29T11:47:25.348Z,225.00
2018-09-29T11:48:25.482Z,253.13
2018-09-29T11:49:25.400Z,270.00
2018-09-29T11:50:25.401Z,286.88
2018-09-29T11:51:25.414Z,315.00
2018-09-29T11:52:25.445Z,354.38
2018-09-29T11:53:25.561Z,365.63
2018-09-29T11:54:25.480Z,320.63
2018-09-29T11:55:25.480Z,315.00
2018-09-29T11:56:25.581Z,331.88
2018-09-29T11:57:25.595Z,331.88
2018-09-29T11:58:25.610Z,326.25
2018-09-29T11:59:25.734Z,337.50
2018-09-29T12:00:25.634Z,399.38
2018-09-29T12:01:25.669Z,444.38
2018-09-29T12:02:25.678Z,556.88
2018-09-29T12:03:25.704Z,601.88
2018-09-29T12:04:25.780Z,556.88
2018-09-29T12:05:25.654Z,506.25
2018-09-29T12:06:25.749Z,506.25
2018-09-29T12:07:25.734Z,388.13
2018-09-29T12:08:25.717Z,315.00
2018-09-29T12:09:25.834Z,275.63
2018-09-29T12:10:25.749Z,253.13
2018-09-29T12:11:25.771Z,247.50
2018-09-29T12:12:25.786Z,247.50
2018-09-29T12:13:25.791Z,281.25
2018-09-29T12:14:25.923Z,371.25
2018-09-29T12:15:25.822Z,416.25
2018-09-29T12:16:25.854Z,433.13
2018-09-29T12:17:25.863Z,478.13
2018-09-29T12:18:25.890Z,528.75
2018-09-29T12:19:25.998Z,551.25
2018-09-29T12:20:25.926Z,506.25
2018-09-29T12:21:25.942Z,444.38
2018-09-29T12:22:26.092Z,478.13
2018-09-29T12:23:25.980Z,495.00
2018-09-29T12:24:26.102Z,421.88
2018-09-29T12:25:26.000Z,405.00
2018-09-29T12:26:26.015Z,365.63
2018-09-29T12:27:26.045Z,326.25
2018-09-29T12:28:26.047Z,303.75
2018-09-29T12:29:26.179Z,292.50
2018-09-29T12:30:26.083Z,320.63
2018-09-29T12:31:26.104Z,410.63
2018-09-29T12:32:26.140Z,613.13
2018-09-29T12:33:26.149Z,641.25
2018-09-29T12:34:26.265Z,708.75
2018-09-29T12:35:26.192Z,753.75
2018-09-29T12:36:26.206Z,838.13
2018-09-29T12:37:26.288Z,978.75
2018-09-29T12:38:26.232Z,849.38
2018-09-29T12:39:26.356Z,652.50
2018-09-29T12:40:26.266Z,590.63
2018-09-29T12:41:26.299Z,517.50
2018-09-29T12:42:26.327Z,466.88
2018-09-29T12:43:26.334Z,483.75
2018-09-29T12:44:26.534Z,489.38
2018-09-29T12:45:26.357Z,421.88
2018-09-29T12:46:26.398Z,466.88
2018-09-29T12:47:26.408Z,900.00
2018-09-29T12:48:26.421Z,1018.13
2018-09-29T12:49:26.537Z,596.25
2018-09-29T12:50:26.458Z,618.75
2018-09-29T12:51:26.555Z,691.88
2018-09-29T12:52:26.492Z,646.88
2018-09-29T12:53:26.518Z,978.75
2018-09-29T12:54:26.538Z,1164.38
2018-09-29T12:55:26.657Z,911.25
2018-09-29T12:56:26.987Z,748.13
2018-09-29T12:57:26.602Z,804.38
2018-09-29T12:58:26.611Z,703.13
2018-09-29T12:59:26.639Z,663.75
2018-09-29T13:00:26.759Z,618.75
2018-09-29T13:01:26.664Z,596.25
2018-09-29T13:02:26.696Z,669.38
2018-09-29T13:03:26.706Z,815.63
2018-09-29T13:04:26.739Z,1170.00